createdAt,value
2022-12-25T00:00:58.601Z,6.50
2022-12-25T00:03:26.916Z,6.50
2022-12-25T00:05:59.550Z,6.50
2022-12-25T00:08:27.800Z,6.50
2022-12-25T00:11:00.292Z,6.50
2022-12-25T00:13:28.440Z,6.30
2022-12-25T00:15:57.002Z,6.40
2022-12-25T00:18:26.225Z,6.40
2022-12-25T00:20:59.666Z,6.30
2022-12-25T00:23:28.670Z,6.20
2022-12-25T00:25:57.023Z,6.20
2022-12-25T00:28:25.666Z,6.10
2022-12-25T00:30:53.982Z,6.20
2022-12-25T00:33:22.127Z,6.10
2022-12-25T00:36:00.477Z,6.10
2022-12-25T00:38:29.355Z,6.00
2022-12-25T00:40:57.605Z,6.20
2022-12-25T00:43:25.912Z,6.10
2022-12-25T00:45:58.844Z,6.00
2022-12-25T00:48:27.722Z,5.90
2022-12-25T00:50:56.641Z,5.90
2022-12-25T00:53:27.043Z,6.00
2022-12-25T00:55:57.076Z,6.00
2022-12-25T00:58:26.931Z,6.00
2022-12-25T01:00:55.297Z,6.10
2022-12-25T01:03:24.107Z,6.10
2022-12-25T01:05:57.650Z,6.10
2022-12-25T01:08:27.446Z,6.10
2022-12-25T01:10:56.025Z,6.20
2022-12-25T01:13:26.435Z,6.20
2022-12-25T01:15:54.784Z,6.20
2022-12-25T01:18:24.870Z,6.10
2022-12-25T01:20:53.489Z,6.00
2022-12-25T01:23:21.600Z,6.00
2022-12-25T01:25:51.149Z,6.00
2022-12-25T01:28:19.319Z,6.10
2022-12-25T01:30:49.953Z,6.20
2022-12-25T01:33:18.146Z,6.10
2022-12-25T01:35:46.367Z,6.10
2022-12-25T01:38:14.724Z,6.20
2022-12-25T01:40:42.933Z,6.30
2022-12-25T01:43:23.584Z,6.30
2022-12-25T01:45:52.716Z,6.50
2022-12-25T01:48:25.156Z,6.40
2022-12-25T01:50:59.634Z,6.30
2022-12-25T01:53:28.150Z,6.20
2022-12-25T01:56:01.285Z,6.20
2022-12-25T01:58:31.369Z,6.20
2022-12-25T02:00:59.709Z,6.20
2022-12-25T02:03:28.189Z,6.30
2022-12-25T02:05:56.657Z,6.30
2022-12-25T02:08:25.062Z,6.30
2022-12-25T02:10:53.219Z,6.30
2022-12-25T02:13:22.050Z,6.40
2022-12-25T02:16:01.427Z,6.50
2022-12-25T02:18:36.038Z,6.40
2022-12-25T02:21:41.084Z,6.40
2022-12-25T02:24:37.132Z,6.50
2022-12-25T02:27:15.464Z,6.50
2022-12-25T02:29:52.969Z,6.60
2022-12-25T02:32:27.029Z,6.60
2022-12-25T02:35:01.949Z,6.50
2022-12-25T02:37:36.460Z,6.50
2022-12-25T02:40:10.920Z,6.40
2022-12-25T02:43:05.334Z,6.40
2022-12-25T02:45:59.237Z,6.50
2022-12-25T02:48:50.747Z,6.60
2022-12-25T02:51:39.508Z,6.50
2022-12-25T02:54:29.685Z,6.50
2022-12-25T02:57:18.079Z,6.40
2022-12-25T03:00:07.463Z,6.50
2022-12-25T03:03:10.656Z,6.40
2022-12-25T03:06:04.579Z,6.40
2022-12-25T03:08:37.633Z,6.40
2022-12-25T03:11:26.786Z,6.40
2022-12-25T03:14:19.612Z,6.40
2022-12-25T03:16:51.719Z,6.50
2022-12-25T03:19:41.826Z,6.50
2022-12-25T03:22:32.230Z,6.40
2022-12-25T03:25:20.572Z,6.40
2022-12-25T03:27:55.070Z,6.40
2022-12-25T03:30:41.935Z,6.50
2022-12-25T03:33:43.725Z,6.50
2022-12-25T03:36:14.040Z,6.50
2022-12-25T03:39:21.670Z,6.50
2022-12-25T03:42:11.851Z,6.50
2022-12-25T03:45:00.948Z,6.50
2022-12-25T03:48:03.893Z,6.50
2022-12-25T03:50:55.357Z,6.50
2022-12-25T03:53:48.843Z,6.40
2022-12-25T03:56:36.361Z,6.50
2022-12-25T03:59:24.015Z,6.40
2022-12-25T04:02:10.686Z,6.40
2022-12-25T04:04:56.626Z,6.40
2022-12-25T04:07:42.303Z,6.40
2022-12-25T04:10:29.691Z,6.30
2022-12-25T04:13:15.566Z,6.40
2022-12-25T04:16:09.826Z,6.40
2022-12-25T04:18:55.727Z,6.30
2022-12-25T04:21:41.298Z,6.40
2022-12-25T04:24:28.074Z,6.40
2022-12-25T04:27:15.453Z,6.50
2022-12-25T04:30:00.903Z,6.40
2022-12-25T04:32:45.567Z,6.40
2022-12-25T04:35:39.792Z,6.60
2022-12-25T04:38:08.058Z,6.40
2022-12-25T04:40:36.989Z,6.40
2022-12-25T04:43:06.620Z,6.50
2022-12-25T04:45:34.893Z,6.50
2022-12-25T04:48:03.107Z,6.40
2022-12-25T04:50:31.389Z,6.40
2022-12-25T04:52:59.561Z,6.50
2022-12-25T04:55:27.734Z,6.50
2022-12-25T04:57:55.927Z,6.40
2022-12-25T05:00:25.446Z,6.40
2022-12-25T05:02:53.994Z,6.40
2022-12-25T05:05:22.435Z,6.50
2022-12-25T05:07:50.801Z,6.40
2022-12-25T05:10:19.070Z,6.40
2022-12-25T05:12:47.353Z,6.50
2022-12-25T05:15:15.623Z,6.40
2022-12-25T05:17:45.197Z,6.50
2022-12-25T05:20:13.634Z,6.40
2022-12-25T05:22:43.315Z,6.30
2022-12-25T05:25:11.534Z,6.40
2022-12-25T05:27:39.723Z,6.40
2022-12-25T05:30:10.378Z,6.40
2022-12-25T05:32:38.529Z,6.50
2022-12-25T05:35:08.939Z,6.60
2022-12-25T05:37:37.744Z,6.50
2022-12-25T05:40:06.855Z,6.40
2022-12-25T05:42:35.879Z,6.40
2022-12-25T05:45:04.134Z,6.40
2022-12-25T05:47:32.449Z,6.40
2022-12-25T05:50:00.587Z,6.40
2022-12-25T05:52:33.934Z,6.40
2022-12-25T05:55:02.343Z,6.40
2022-12-25T05:57:30.840Z,6.40
2022-12-25T05:59:59.139Z,6.40
2022-12-25T06:02:27.818Z,6.30
2022-12-25T06:04:56.216Z,6.30
2022-12-25T06:07:24.483Z,6.30
2022-12-25T06:09:54.255Z,6.30
2022-12-25T06:12:22.374Z,6.30
2022-12-25T06:14:50.609Z,6.20
2022-12-25T06:17:18.773Z,6.20
2022-12-25T06:19:47.038Z,6.20
2022-12-25T06:22:15.199Z,6.20
2022-12-25T06:24:43.673Z,6.20
2022-12-25T06:27:13.228Z,6.30
2022-12-25T06:29:41.370Z,6.20
2022-12-25T06:32:09.475Z,6.10
2022-12-25T06:34:37.691Z,6.10
2022-12-25T06:37:05.927Z,6.20
2022-12-25T06:39:34.357Z,6.20
2022-12-25T06:42:02.554Z,6.20
2022-12-25T06:44:33.689Z,6.20
2022-12-25T06:47:01.875Z,6.20
2022-12-25T06:49:30.255Z,6.30
2022-12-25T06:51:58.353Z,6.20
2022-12-25T06:54:26.645Z,6.30
2022-12-25T06:56:54.778Z,6.30
2022-12-25T06:59:22.982Z,6.30
2022-12-25T07:01:55.378Z,6.20
2022-12-25T07:04:29.150Z,6.20
2022-12-25T07:06:57.308Z,6.30
2022-12-25T07:09:25.584Z,6.30
2022-12-25T07:11:54.193Z,6.30
2022-12-25T07:14:24.795Z,6.40
2022-12-25T07:16:54.590Z,6.40
2022-12-25T07:19:23.057Z,6.40
2022-12-25T07:21:51.388Z,6.40
2022-12-25T07:24:21.040Z,6.40
2022-12-25T07:26:49.574Z,6.50
2022-12-25T07:29:18.034Z,6.70
2022-12-25T07:31:46.377Z,6.50
2022-12-25T07:34:17.631Z,6.70
2022-12-25T07:36:45.757Z,6.60
2022-12-25T07:39:14.434Z,6.70
2022-12-25T07:41:42.567Z,6.90
2022-12-25T07:44:17.294Z,6.90
2022-12-25T07:46:46.094Z,6.80
2022-12-25T07:49:16.253Z,6.80
2022-12-25T07:51:44.602Z,6.80
2022-12-25T07:54:12.865Z,6.90
2022-12-25T07:56:41.104Z,6.90
2022-12-25T07:59:09.372Z,7.10
2022-12-25T08:01:37.710Z,7.20
2022-12-25T08:04:06.365Z,7.20
2022-12-25T08:06:36.505Z,7.20
2022-12-25T08:09:07.218Z,7.20
2022-12-25T08:11:35.613Z,7.20
2022-12-25T08:14:06.900Z,7.30
2022-12-25T08:16:35.311Z,7.50
2022-12-25T08:19:03.713Z,7.50
2022-12-25T08:21:31.971Z,7.60
2022-12-25T08:24:03.081Z,7.60
2022-12-25T08:26:31.561Z,7.60
2022-12-25T08:28:59.902Z,7.70
2022-12-25T08:31:29.997Z,7.70
2022-12-25T08:33:59.554Z,7.60
2022-12-25T08:36:28.215Z,7.60
2022-12-25T08:39:02.499Z,7.60
2022-12-25T08:41:36.348Z,7.60
2022-12-25T08:44:05.143Z,7.70
2022-12-25T08:46:33.586Z,7.70
2022-12-25T08:49:01.776Z,7.70
2022-12-25T08:51:29.963Z,7.70
2022-12-25T08:54:01.290Z,7.70
2022-12-25T08:56:29.927Z,7.70
2022-12-25T08:58:59.554Z,7.70
2022-12-25T09:01:27.910Z,7.80
2022-12-25T09:03:56.160Z,7.90
2022-12-25T09:06:24.396Z,8.00
2022-12-25T09:08:52.616Z,8.00
2022-12-25T09:11:21.707Z,8.00
2022-12-25T09:13:50.182Z,8.10
2022-12-25T09:16:22.211Z,8.20
2022-12-25T09:18:51.027Z,8.20
2022-12-25T09:21:20.150Z,8.30
2022-12-25T09:23:48.241Z,8.40
2022-12-25T09:26:18.382Z,8.60
2022-12-25T09:28:51.184Z,8.70
2022-12-25T09:31:22.690Z,8.80
2022-12-25T09:33:51.484Z,8.90
2022-12-25T09:36:21.353Z,9.00
2022-12-25T09:38:49.609Z,9.00
2022-12-25T09:41:22.464Z,9.10
2022-12-25T09:43:53.965Z,9.20
2022-12-25T09:46:34.735Z,9.20
2022-12-25T09:49:14.070Z,9.30
2022-12-25T09:51:45.356Z,9.40
2022-12-25T09:54:19.409Z,9.40
2022-12-25T09:56:47.622Z,9.40
2022-12-25T09:59:22.218Z,9.40
2022-12-25T10:02:02.178Z,9.40
2022-12-25T10:04:48.602Z,9.50
2022-12-25T10:07:27.642Z,9.70
2022-12-25T10:10:07.435Z,9.80
2022-12-25T10:12:50.492Z,9.90
2022-12-25T10:15:32.689Z,9.90
2022-12-25T10:18:26.214Z,10.00
2022-12-25T10:20:56.688Z,9.90
2022-12-25T10:23:29.368Z,10.10
2022-12-25T10:25:57.891Z,10.20
2022-12-25T10:28:34.901Z,10.20
2022-12-25T10:31:15.521Z,10.30
2022-12-25T10:33:45.123Z,10.30
2022-12-25T10:36:14.100Z,10.30
2022-12-25T10:38:42.490Z,10.40
2022-12-25T10:41:23.149Z,10.50
2022-12-25T10:43:54.022Z,10.60
2022-12-25T10:46:23.887Z,10.50
2022-12-25T10:48:55.579Z,10.60
2022-12-25T10:51:32.160Z,10.80
2022-12-25T10:54:00.763Z,10.90
2022-12-25T10:56:28.971Z,11.00
2022-12-25T10:59:06.366Z,11.10
2022-12-25T11:01:34.856Z,11.10
2022-12-25T11:04:05.178Z,11.10
2022-12-25T11:06:34.596Z,11.20
2022-12-25T11:09:04.158Z,11.10
2022-12-25T11:11:32.386Z,11.20
2022-12-25T11:14:03.088Z,11.50
2022-12-25T11:16:33.909Z,11.80
2022-12-25T11:19:02.611Z,11.90
2022-12-25T11:21:33.784Z,11.90
2022-12-25T11:24:03.582Z,11.80
2022-12-25T11:26:36.682Z,11.80
2022-12-25T11:29:06.604Z,11.70
2022-12-25T11:31:41.437Z,11.90
2022-12-25T11:34:16.490Z,11.70
2022-12-25T11:36:47.892Z,12.00
2022-12-25T11:39:24.364Z,12.30
2022-12-25T11:41:57.310Z,12.60
2022-12-25T11:44:39.081Z,12.40
2022-12-25T11:47:14.698Z,12.70
2022-12-25T11:49:52.188Z,12.40
2022-12-25T11:52:26.123Z,13.00
2022-12-25T11:55:00.657Z,13.40
2022-12-25T11:57:32.215Z,13.70
2022-12-25T12:00:06.651Z,13.60
2022-12-25T12:02:40.994Z,13.50
2022-12-25T12:05:16.259Z,13.20
2022-12-25T12:07:55.584Z,13.00
2022-12-25T12:10:30.588Z,13.20
2022-12-25T12:13:06.931Z,12.80
2022-12-25T12:15:42.885Z,12.80
2022-12-25T12:18:19.684Z,13.10
2022-12-25T12:20:59.921Z,12.80
2022-12-25T12:23:31.137Z,13.60
2022-12-25T12:25:59.662Z,12.60
2022-12-25T12:28:30.113Z,13.40
2022-12-25T12:31:01.229Z,13.70
2022-12-25T12:33:34.400Z,13.60
2022-12-25T12:36:04.376Z,13.50
2022-12-25T12:38:35.438Z,14.50
2022-12-25T12:41:06.523Z,14.40
2022-12-25T12:43:38.461Z,14.60
2022-12-25T12:46:15.949Z,13.80
2022-12-25T12:48:47.661Z,13.40
2022-12-25T12:51:29.242Z,13.30
2022-12-25T12:54:20.427Z,13.20
2022-12-25T12:57:02.542Z,13.30
2022-12-25T12:59:39.600Z,13.10
2022-12-25T13:02:45.339Z,13.10
2022-12-25T13:05:20.405Z,13.30
2022-12-25T13:07:56.780Z,13.50
2022-12-25T13:10:32.713Z,13.70
2022-12-25T13:13:05.804Z,13.70
2022-12-25T13:15:35.966Z,14.20
2022-12-25T13:18:07.950Z,14.40
2022-12-25T13:20:42.842Z,14.10
2022-12-25T13:23:26.362Z,13.80
2022-12-25T13:25:57.520Z,14.20
2022-12-25T13:28:30.149Z,14.70
2022-12-25T13:31:07.746Z,14.50
2022-12-25T13:33:36.265Z,14.90
2022-12-25T13:36:05.769Z,14.40
2022-12-25T13:38:34.162Z,14.50
2022-12-25T13:41:35.729Z,14.10
2022-12-25T13:44:04.305Z,14.60
2022-12-25T13:46:32.508Z,14.50
2022-12-25T13:49:02.030Z,14.60
2022-12-25T13:51:30.155Z,15.00
2022-12-25T13:54:05.594Z,15.20
2022-12-25T13:56:36.180Z,15.10
2022-12-25T13:59:05.453Z,15.40
2022-12-25T14:01:33.733Z,15.60
2022-12-25T14:04:02.037Z,15.90
2022-12-25T14:06:33.045Z,16.30
2022-12-25T14:09:01.479Z,16.40
2022-12-25T14:11:31.988Z,16.10
2022-12-25T14:14:04.869Z,16.60
2022-12-25T14:16:33.450Z,16.30
2022-12-25T14:19:03.476Z,16.10
2022-12-25T14:21:34.284Z,16.20
2022-12-25T14:24:02.600Z,15.70
2022-12-25T14:26:32.629Z,15.50
2022-12-25T14:29:16.788Z,15.20
2022-12-25T14:31:47.442Z,15.00
2022-12-25T14:34:18.947Z,14.90
2022-12-25T14:36:47.679Z,14.70
2022-12-25T14:39:33.275Z,14.50
2022-12-25T14:42:21.636Z,14.60
2022-12-25T14:45:00.822Z,13.90
2022-12-25T14:47:29.468Z,13.60
2022-12-25T14:49:58.302Z,13.60
2022-12-25T14:52:36.338Z,13.90
2022-12-25T14:55:07.843Z,14.00
2022-12-25T14:57:40.153Z,13.80
2022-12-25T15:00:23.432Z,13.90
2022-12-25T15:02:54.409Z,13.50
2022-12-25T15:05:29.297Z,13.80
2022-12-25T15:08:07.369Z,13.20
2022-12-25T15:13:25.177Z,12.40
2022-12-25T15:15:59.247Z,12.00
2022-12-25T15:18:32.851Z,11.70
2022-12-25T15:21:01.289Z,11.30
2022-12-25T15:23:30.072Z,11.00
2022-12-25T15:25:58.236Z,10.80
2022-12-25T15:28:26.670Z,10.60
2022-12-25T15:30:56.345Z,10.70
2022-12-25T15:33:24.606Z,10.80
2022-12-25T15:35:52.848Z,10.40
2022-12-25T15:38:21.112Z,10.20
2022-12-25T15:40:49.312Z,10.20
2022-12-25T15:43:40.089Z,10.00
2022-12-25T15:46:10.267Z,9.80
2022-12-25T15:48:38.539Z,9.50
2022-12-25T15:51:07.177Z,9.10
2022-12-25T15:53:35.404Z,9.00
2022-12-25T15:56:03.701Z,9.20
2022-12-25T15:58:31.923Z,9.20
2022-12-25T16:01:00.043Z,9.30
2022-12-25T16:03:29.838Z,9.00
2022-12-25T16:05:58.036Z,9.00
2022-12-25T16:08:26.296Z,9.00
2022-12-25T16:10:54.893Z,8.50
2022-12-25T16:13:23.367Z,8.40
2022-12-25T16:15:52.005Z,8.60
2022-12-25T16:18:21.394Z,8.50
2022-12-25T16:20:51.172Z,8.40
2022-12-25T16:23:19.419Z,8.30
2022-12-25T16:25:47.658Z,8.30
2022-12-25T16:28:15.865Z,8.10
2022-12-25T16:30:44.327Z,8.40
2022-12-25T16:33:12.957Z,8.60
2022-12-25T16:35:41.307Z,8.90
2022-12-25T16:38:11.709Z,8.90
2022-12-25T16:40:39.987Z,8.50
2022-12-25T16:43:08.158Z,8.90
2022-12-25T16:45:39.447Z,8.70
2022-12-25T16:48:08.693Z,8.90
2022-12-25T16:50:39.356Z,8.40
2022-12-25T16:53:07.650Z,8.00
2022-12-25T16:55:38.855Z,7.90
2022-12-25T16:58:07.885Z,7.70
2022-12-25T17:00:36.154Z,7.60
2022-12-25T17:03:04.556Z,7.80
2022-12-25T17:05:36.033Z,7.80
2022-12-25T17:08:04.299Z,7.80
2022-12-25T17:10:32.624Z,7.40
2022-12-25T17:13:02.156Z,7.60
2022-12-25T17:15:30.452Z,7.60
2022-12-25T17:17:58.529Z,7.40
2022-12-25T17:20:26.729Z,7.40
2022-12-25T17:22:54.890Z,7.20
2022-12-25T17:25:23.085Z,7.00
2022-12-25T17:27:51.494Z,6.90
2022-12-25T17:30:21.396Z,6.90
2022-12-25T17:32:50.635Z,6.80
2022-12-25T17:35:21.455Z,6.60
2022-12-25T17:37:49.773Z,6.60
2022-12-25T17:40:18.465Z,6.60
2022-12-25T17:42:46.681Z,6.40
2022-12-25T17:45:15.114Z,6.40
2022-12-25T17:47:44.919Z,6.30
2022-12-25T17:50:13.491Z,6.20
2022-12-25T17:52:41.768Z,6.10
2022-12-25T17:55:10.725Z,6.20
2022-12-25T17:57:41.254Z,6.20
2022-12-25T18:00:10.382Z,6.50
2022-12-25T18:02:40.182Z,6.60
2022-12-25T18:05:11.308Z,6.40
2022-12-25T18:07:39.600Z,6.50
2022-12-25T18:10:09.224Z,6.50
2022-12-25T18:12:37.659Z,6.30
2022-12-25T18:15:06.597Z,6.40
2022-12-25T18:17:34.813Z,6.50
2022-12-25T18:20:03.327Z,6.40
2022-12-25T18:22:34.496Z,6.30
2022-12-25T18:25:02.611Z,6.30
2022-12-25T18:27:30.918Z,6.60
2022-12-25T18:29:59.029Z,6.40
2022-12-25T18:32:28.316Z,6.20
2022-12-25T18:34:57.108Z,6.50
2022-12-25T18:37:26.633Z,6.40
2022-12-25T18:39:56.334Z,7.00
2022-12-25T18:42:43.353Z,6.90
2022-12-25T18:45:13.332Z,6.80
2022-12-25T18:47:41.603Z,6.80
2022-12-25T18:50:10.780Z,7.10
2022-12-25T18:52:47.535Z,7.00
2022-12-25T18:55:20.160Z,7.00
2022-12-25T18:57:49.554Z,6.90
2022-12-25T19:00:18.540Z,6.90
2022-12-25T19:02:46.998Z,6.80
2022-12-25T19:05:15.251Z,6.60
2022-12-25T19:07:43.934Z,6.50
2022-12-25T19:10:12.287Z,6.40
2022-12-25T19:12:41.898Z,6.40
2022-12-25T19:15:12.031Z,6.40
2022-12-25T19:17:40.253Z,6.40
2022-12-25T19:20:09.832Z,6.30
2022-12-25T19:22:38.065Z,6.30
2022-12-25T19:25:07.582Z,6.20
2022-12-25T19:27:35.842Z,6.20
2022-12-25T19:30:06.304Z,6.30
2022-12-25T19:32:34.525Z,6.60
2022-12-25T19:35:04.651Z,6.40
2022-12-25T19:37:33.286Z,6.60
2022-12-25T19:40:01.730Z,6.60
2022-12-25T19:42:29.888Z,6.70
2022-12-25T19:44:58.121Z,6.70
2022-12-25T19:47:27.704Z,6.80
2022-12-25T19:50:00.879Z,6.80
2022-12-25T19:52:31.166Z,6.80
2022-12-25T19:54:59.755Z,6.90
2022-12-25T19:57:28.030Z,6.90
2022-12-25T19:59:57.129Z,7.10
2022-12-25T20:02:25.553Z,7.10
2022-12-25T20:04:55.370Z,7.30
2022-12-25T20:07:23.638Z,7.40
2022-12-25T20:09:51.852Z,7.30
2022-12-25T20:12:20.247Z,7.20
2022-12-25T20:14:49.408Z,7.30
2022-12-25T20:17:17.808Z,7.30
2022-12-25T20:19:46.078Z,7.40
2022-12-25T20:22:15.919Z,7.50
2022-12-25T20:24:44.566Z,7.70
2022-12-25T20:27:12.873Z,7.60
2022-12-25T20:29:41.209Z,7.70
2022-12-25T20:32:09.833Z,7.90
2022-12-25T20:34:38.339Z,8.00
2022-12-25T20:37:06.513Z,8.00
2022-12-25T20:39:36.200Z,8.50
2022-12-25T20:42:04.617Z,8.70
2022-12-25T20:44:32.834Z,8.60
2022-12-25T20:47:01.271Z,8.60
2022-12-25T20:49:32.537Z,8.60
2022-12-25T20:52:05.237Z,8.60
2022-12-25T20:54:35.854Z,8.50
2022-12-25T20:57:04.125Z,8.60
2022-12-25T20:59:37.348Z,8.60
2022-12-25T21:02:06.677Z,8.50
2022-12-25T21:04:34.989Z,8.40
2022-12-25T21:07:03.766Z,8.30
2022-12-25T21:09:32.298Z,8.40
2022-12-25T21:12:02.162Z,8.40
2022-12-25T21:14:31.943Z,8.40
2022-12-25T21:17:00.394Z,8.30
2022-12-25T21:19:28.741Z,8.20
2022-12-25T21:21:57.061Z,8.20
2022-12-25T21:24:25.436Z,8.10
2022-12-25T21:26:53.881Z,8.20
2022-12-25T21:29:24.465Z,8.20
2022-12-25T21:32:12.675Z,8.10
2022-12-25T21:34:41.055Z,8.10
2022-12-25T21:37:09.690Z,8.30
2022-12-25T21:39:38.209Z,8.40
2022-12-25T21:42:06.840Z,8.40
2022-12-25T21:44:36.840Z,8.40
2022-12-25T21:47:05.336Z,8.40
2022-12-25T21:49:51.401Z,8.30
2022-12-25T21:52:19.740Z,8.10
2022-12-25T21:54:47.967Z,8.00
2022-12-25T21:57:16.244Z,7.90
2022-12-25T21:59:46.875Z,8.20
2022-12-25T22:02:15.195Z,8.20
2022-12-25T22:04:43.669Z,8.20
2022-12-25T22:07:18.886Z,8.00
2022-12-25T22:09:47.937Z,7.90
2022-12-25T22:12:34.905Z,7.90
2022-12-25T22:15:07.270Z,8.00
2022-12-25T22:17:54.842Z,7.90
2022-12-25T22:20:25.312Z,7.90
2022-12-25T22:22:54.125Z,7.90
2022-12-25T22:25:22.512Z,7.70
2022-12-25T22:27:51.480Z,7.30
2022-12-25T22:30:24.286Z,7.50
2022-12-25T22:32:54.505Z,7.60
2022-12-25T22:35:22.926Z,7.70
2022-12-25T22:37:54.009Z,7.60
2022-12-25T22:40:22.847Z,7.40
2022-12-25T22:42:53.914Z,7.50
2022-12-25T22:45:23.770Z,7.60
2022-12-25T22:47:51.909Z,7.50
2022-12-25T22:50:20.221Z,7.40
2022-12-25T22:52:48.346Z,7.20
2022-12-25T22:55:19.207Z,7.20
2022-12-25T22:57:48.906Z,7.10
2022-12-25T23:00:17.125Z,7.00
2022-12-25T23:02:47.058Z,7.10
2022-12-25T23:05:16.769Z,7.20
2022-12-25T23:07:44.998Z,7.30
2022-12-25T23:10:13.316Z,7.40
2022-12-25T23:13:00.261Z,7.50
2022-12-25T23:15:28.909Z,7.50
2022-12-25T23:18:16.239Z,7.60
2022-12-25T23:21:01.773Z,7.60
2022-12-25T23:23:47.199Z,7.60
2022-12-25T23:26:17.081Z,7.60
2022-12-25T23:29:02.973Z,7.90
2022-12-25T23:31:33.472Z,7.90
2022-12-25T23:34:04.778Z,8.00
2022-12-25T23:36:33.335Z,7.90
2022-12-25T23:39:08.652Z,7.90
2022-12-25T23:41:39.296Z,7.80
2022-12-25T23:44:07.811Z,8.30
2022-12-25T23:46:36.445Z,8.00
2022-12-25T23:49:06.855Z,8.00
2022-12-25T23:51:37.346Z,7.90
2022-12-25T23:54:06.349Z,7.90
2022-12-25T23:56:34.468Z,7.90
2022-12-25T23:59:04.189Z,7.90
